sensor_id;sensor_type;location;lat;lon;timestamp;temperature;humidity
35027;DHT22;60696;51.426;6.934;2023-08-24T04:01:53;19.10;99.90
35027;DHT22;60696;51.426;6.934;2023-08-24T04:04:20;19.20;99.90
35027;DHT22;60696;51.426;6.934;2023-08-24T04:06:45;19.30;99.90
35027;DHT22;60696;51.426;6.934;2023-08-24T04:09:11;19.20;1.00
35027;DHT22;60696;51.426;6.934;2023-08-24T04:11:36;19.10;1.00
35027;DHT22;60696;51.426;6.934;2023-08-24T04:14:02;19.00;99.90
35027;DHT22;60696;51.426;6.934;2023-08-24T04:16:27;19.10;1.00
35027;DHT22;60696;51.426;6.934;2023-08-24T04:18:53;19.10;1.00
35027;DHT22;60696;51.426;6.934;2023-08-24T04:21:18;19.00;99.90
35027;DHT22;60696;51.426;6.934;2023-08-24T04:23:44;19.00;99.90
35027;DHT22;60696;51.426;6.934;2023-08-24T04:26:13;19.00;99.90
35027;DHT22;60696;51.426;6.934;2023-08-24T04:28:39;19.10;1.00
35027;DHT22;60696;51.426;6.934;2023-08-24T04:31:05;19.10;99.90
35027;DHT22;60696;51.426;6.934;2023-08-24T04:33:31;19.10;1.00
35027;DHT22;60696;51.426;6.934;2023-08-24T04:35:57;19.10;31.80
35027;DHT22;60696;51.426;6.934;2023-08-24T04:38:23;19.00;92.00
35027;DHT22;60696;51.426;6.934;2023-08-24T04:40:52;19.00;54.60
35027;DHT22;60696;51.426;6.934;2023-08-24T04:43:19;18.90;1.00
35027;DHT22;60696;51.426;6.934;2023-08-24T04:45:48;18.70;99.90
35027;DHT22;60696;51.426;6.934;2023-08-24T04:48:14;18.60;99.90
35027;DHT22;60696;51.426;6.934;2023-08-24T04:50:43;18.30;99.90
35027;DHT22;60696;51.426;6.934;2023-08-24T04:53:09;18.20;99.90
35027;DHT22;60696;51.426;6.934;2023-08-24T04:55:34;18.30;99.90
35027;DHT22;60696;51.426;6.934;2023-08-24T04:58:00;18.50;99.90
35027;DHT22;60696;51.426;6.934;2023-08-24T05:00:25;18.50;99.90
35027;DHT22;60696;51.426;6.934;2023-08-24T05:02:51;18.60;99.90
35027;DHT22;60696;51.426;6.934;2023-08-24T05:05:16;18.60;99.90
35027;DHT22;60696;51.426;6.934;2023-08-24T05:07:43;18.70;99.90
35027;DHT22;60696;51.426;6.934;2023-08-24T05:10:08;18.80;99.90
35027;DHT22;60696;51.426;6.934;2023-08-24T05:12:34;18.80;99.90
35027;DHT22;60696;51.426;6.934;2023-08-24T05:15:05;18.90;1.00
35027;DHT22;60696;51.426;6.934;2023-08-24T05:17:30;18.90;1.00
35027;DHT22;60696;51.426;6.934;2023-08-24T05:19:58;19.00;1.00
35027;DHT22;60696;51.426;6.934;2023-08-24T05:22:23;19.10;1.00
35027;DHT22;60696;51.426;6.934;2023-08-24T05:24:49;19.10;99.90
35027;DHT22;60696;51.426;6.934;2023-08-24T05:27:15;19.10;1.00
35027;DHT22;60696;51.426;6.934;2023-08-24T05:29:41;19.10;99.90
35027;DHT22;60696;51.426;6.934;2023-08-24T05:32:07;19.20;1.00
35027;DHT22;60696;51.426;6.934;2023-08-24T05:34:33;19.10;1.00
35027;DHT22;60696;51.426;6.934;2023-08-24T05:36:58;19.10;99.90
35027;DHT22;60696;51.426;6.934;2023-08-24T05:39:24;19.10;99.90
35027;DHT22;60696;51.426;6.934;2023-08-24T05:41:51;19.30;1.50
35027;DHT22;60696;51.426;6.934;2023-08-24T05:44:18;19.40;1.00
35027;DHT22;60696;51.426;6.934;2023-08-24T05:46:44;19.40;1.00
35027;DHT22;60696;51.426;6.934;2023-08-24T05:49:09;19.50;1.00
35027;DHT22;60696;51.426;6.934;2023-08-24T05:51:35;19.60;1.00
35027;DHT22;60696;51.426;6.934;2023-08-24T05:54:01;19.60;1.00
35027;DHT22;60696;51.426;6.934;2023-08-24T05:56:26;19.70;99.90
35027;DHT22;60696;51.426;6.934;2023-08-24T05:58:53;19.80;99.90
35027;DHT22;60696;51.426;6.934;2023-08-24T06:01:19;19.80;99.90
35027;DHT22;60696;51.426;6.934;2023-08-24T06:03:45;19.80;99.90
35027;DHT22;60696;51.426;6.934;2023-08-24T06:06:10;19.90;99.90
35027;DHT22;60696;51.426;6.934;2023-08-24T06:08:36;19.90;99.90
35027;DHT22;60696;51.426;6.934;2023-08-24T06:11:02;20.00;39.70
35027;DHT22;60696;51.426;6.934;2023-08-24T06:13:27;20.10;1.00
35027;DHT22;60696;51.426;6.934;2023-08-24T06:15:53;20.20;1.00
35027;DHT22;60696;51.426;6.934;2023-08-24T06:18:22;20.20;1.00
35027;DHT22;60696;51.426;6.934;2023-08-24T06:20:48;20.30;1.00
35027;DHT22;60696;51.426;6.934;2023-08-24T06:23:17;20.40;1.00
35027;DHT22;60696;51.426;6.934;2023-08-24T06:25:44;20.50;1.00
35027;DHT22;60696;51.426;6.934;2023-08-24T06:28:10;20.70;99.90
35027;DHT22;60696;51.426;6.934;2023-08-24T06:30:40;21.00;99.90
35027;DHT22;60696;51.426;6.934;2023-08-24T06:33:06;21.00;1.00
35027;DHT22;60696;51.426;6.934;2023-08-24T06:35:35;21.20;99.90
35027;DHT22;60696;51.426;6.934;2023-08-24T06:38:02;22.10;1.00
35027;DHT22;60696;51.426;6.934;2023-08-24T06:40:28;22.80;99.90
35027;DHT22;60696;51.426;6.934;2023-08-24T06:42:54;23.40;1.00
35027;DHT22;60696;51.426;6.934;2023-08-24T06:45:20;24.20;99.90
35027;DHT22;60696;51.426;6.934;2023-08-24T06:47:45;24.60;97.90
35027;DHT22;60696;51.426;6.934;2023-08-24T06:50:11;24.60;1.00
35027;DHT22;60696;51.426;6.934;2023-08-24T06:52:37;24.80;1.00
35027;DHT22;60696;51.426;6.934;2023-08-24T06:55:04;25.10;1.00
35027;DHT22;60696;51.426;6.934;2023-08-24T06:57:30;24.40;8.90
35027;DHT22;60696;51.426;6.934;2023-08-24T06:59:56;25.20;1.00
35027;DHT22;60696;51.426;6.934;2023-08-24T07:02:21;26.30;1.00
35027;DHT22;60696;51.426;6.934;2023-08-24T07:04:48;26.50;99.90
35027;DHT22;60696;51.426;6.934;2023-08-24T07:07:13;27.70;99.90
35027;DHT22;60696;51.426;6.934;2023-08-24T07:09:39;28.40;99.90
35027;DHT22;60696;51.426;6.934;2023-08-24T07:12:05;28.60;87.10
35027;DHT22;60696;51.426;6.934;2023-08-24T07:14:38;28.70;25.50
35027;DHT22;60696;51.426;6.934;2023-08-24T07:17:04;28.40;1.00
35027;DHT22;60696;51.426;6.934;2023-08-24T07:19:29;29.10;1.00
35027;DHT22;60696;51.426;6.934;2023-08-24T07:21:55;27.90;1.00
35027;DHT22;60696;51.426;6.934;2023-08-24T07:24:20;28.00;1.00
35027;DHT22;60696;51.426;6.934;2023-08-24T07:26:46;27.40;1.00
35027;DHT22;60696;51.426;6.934;2023-08-24T07:29:12;28.20;1.00
35027;DHT22;60696;51.426;6.934;2023-08-24T07:31:38;29.60;1.00
35027;DHT22;60696;51.426;6.934;2023-08-24T07:34:03;31.60;1.00
35027;DHT22;60696;51.426;6.934;2023-08-24T07:36:30;31.30;1.00
35027;DHT22;60696;51.426;6.934;2023-08-24T07:38:56;32.10;1.00
35027;DHT22;60696;51.426;6.934;2023-08-24T07:41:21;31.30;1.00
35027;DHT22;60696;51.426;6.934;2023-08-24T07:43:47;31.80;1.00
35027;DHT22;60696;51.426;6.934;2023-08-24T07:46:13;31.40;1.00
35027;DHT22;60696;51.426;6.934;2023-08-24T07:48:38;31.80;1.00
35027;DHT22;60696;51.426;6.934;2023-08-24T07:51:04;32.10;1.00
35027;DHT22;60696;51.426;6.934;2023-08-24T07:53:30;31.90;99.90
35027;DHT22;60696;51.426;6.934;2023-08-24T07:55:56;33.30;99.90
35027;DHT22;60696;51.426;6.934;2023-08-24T07:58:23;34.10;99.90
35027;DHT22;60696;51.426;6.934;2023-08-24T08:00:52;33.40;99.90
35027;DHT22;60696;51.426;6.934;2023-08-24T08:03:19;33.90;99.90
35027;DHT22;60696;51.426;6.934;2023-08-24T08:05:45;34.60;99.90
35027;DHT22;60696;51.426;6.934;2023-08-24T08:08:15;36.00;99.90
35027;DHT22;60696;51.426;6.934;2023-08-24T08:10:41;35.60;99.90
35027;DHT22;60696;51.426;6.934;2023-08-24T08:13:08;33.80;99.90
35027;DHT22;60696;51.426;6.934;2023-08-24T08:15:34;34.80;99.90
35027;DHT22;60696;51.426;6.934;2023-08-24T08:18:01;35.00;99.90
35027;DHT22;60696;51.426;6.934;2023-08-24T08:20:27;35.20;99.90
35027;DHT22;60696;51.426;6.934;2023-08-24T08:22:52;37.10;99.90
35027;DHT22;60696;51.426;6.934;2023-08-24T08:25:18;37.90;99.90
35027;DHT22;60696;51.426;6.934;2023-08-24T08:27:44;38.20;99.90
35027;DHT22;60696;51.426;6.934;2023-08-24T08:30:10;38.40;99.90
35027;DHT22;60696;51.426;6.934;2023-08-24T08:32:36;39.40;99.90
35027;DHT22;60696;51.426;6.934;2023-08-24T08:35:02;38.80;99.90
35027;DHT22;60696;51.426;6.934;2023-08-24T08:37:31;38.30;99.90
35027;DHT22;60696;51.426;6.934;2023-08-24T08:39:57;37.50;99.90
35027;DHT22;60696;51.426;6.934;2023-08-24T08:42:23;36.80;99.90
35027;DHT22;60696;51.426;6.934;2023-08-24T08:44:49;35.50;99.90
35027;DHT22;60696;51.426;6.934;2023-08-24T08:47:15;35.50;99.90
35027;DHT22;60696;51.426;6.934;2023-08-24T08:49:45;35.80;99.90
35027;DHT22;60696;51.426;6.934;2023-08-24T08:52:12;36.20;99.90
35027;DHT22;60696;51.426;6.934;2023-08-24T08:54:38;37.10;99.90
35027;DHT22;60696;51.426;6.934;2023-08-24T08:57:04;35.70;99.90
35027;DHT22;60696;51.426;6.934;2023-08-24T08:59:30;35.30;99.90
35027;DHT22;60696;51.426;6.934;2023-08-24T09:01:57;35.00;99.90
35027;DHT22;60696;51.426;6.934;2023-08-24T09:04:32;34.00;99.90
35027;DHT22;60696;51.426;6.934;2023-08-24T09:06:58;33.60;99.90
35027;DHT22;60696;51.426;6.934;2023-08-24T09:09:26;35.10;99.90
35027;DHT22;60696;51.426;6.934;2023-08-24T09:11:52;35.60;99.90
35027;DHT22;60696;51.426;6.934;2023-08-24T09:14:18;34.50;99.90
35027;DHT22;60696;51.426;6.934;2023-08-24T09:16:44;34.40;99.90
35027;DHT22;60696;51.426;6.934;2023-08-24T09:19:13;34.40;99.90
35027;DHT22;60696;51.426;6.934;2023-08-24T09:21:39;34.00;99.90
35027;DHT22;60696;51.426;6.934;2023-08-24T09:24:07;34.60;99.90
35027;DHT22;60696;51.426;6.934;2023-08-24T09:26:35;33.90;99.90
35027;DHT22;60696;51.426;6.934;2023-08-24T09:29:15;35.20;99.90
35027;DHT22;60696;51.426;6.934;2023-08-24T09:31:41;35.90;99.90
35027;DHT22;60696;51.426;6.934;2023-08-24T09:34:11;35.90;99.90
35027;DHT22;60696;51.426;6.934;2023-08-24T09:36:37;35.30;99.90
35027;DHT22;60696;51.426;6.934;2023-08-24T09:39:04;33.50;99.90
35027;DHT22;60696;51.426;6.934;2023-08-24T09:41:48;33.70;99.90
35027;DHT22;60696;51.426;6.934;2023-08-24T09:44:14;33.70;99.90
35027;DHT22;60696;51.426;6.934;2023-08-24T09:46:40;33.80;99.90
35027;DHT22;60696;51.426;6.934;2023-08-24T09:49:07;33.20;99.90
35027;DHT22;60696;51.426;6.934;2023-08-24T09:51:34;32.50;99.90
35027;DHT22;60696;51.426;6.934;2023-08-24T09:54:04;33.10;99.90
35027;DHT22;60696;51.426;6.934;2023-08-24T09:56:35;34.30;99.90
35027;DHT22;60696;51.426;6.934;2023-08-24T09:59:06;34.10;99.90
35027;DHT22;60696;51.426;6.934;2023-08-24T10:01:33;33.40;99.90
35027;DHT22;60696;51.426;6.934;2023-08-24T10:03:59;32.50;99.90
35027;DHT22;60696;51.426;6.934;2023-08-24T10:06:27;32.60;99.90
35027;DHT22;60696;51.426;6.934;2023-08-24T10:08:58;32.20;99.90
35027;DHT22;60696;51.426;6.934;2023-08-24T10:11:28;31.40;99.90
35027;DHT22;60696;51.426;6.934;2023-08-24T10:14:13;31.10;99.90
35027;DHT22;60696;51.426;6.934;2023-08-24T10:16:52;31.20;99.90
35027;DHT22;60696;51.426;6.934;2023-08-24T10:19:18;31.20;99.90
35027;DHT22;60696;51.426;6.934;2023-08-24T10:21:45;31.30;99.90
35027;DHT22;60696;51.426;6.934;2023-08-24T10:24:12;31.10;99.90
35027;DHT22;60696;51.426;6.934;2023-08-24T10:26:40;31.50;99.90
35027;DHT22;60696;51.426;6.934;2023-08-24T10:29:06;31.60;99.90
35027;DHT22;60696;51.426;6.934;2023-08-24T10:31:33;31.80;99.90
35027;DHT22;60696;51.426;6.934;2023-08-24T10:34:01;31.50;99.90
35027;DHT22;60696;51.426;6.934;2023-08-24T10:36:27;31.20;99.90
35027;DHT22;60696;51.426;6.934;2023-08-24T10:38:56;30.90;99.90
35027;DHT22;60696;51.426;6.934;2023-08-24T10:41:26;30.70;99.90
35027;DHT22;60696;51.426;6.934;2023-08-24T10:44:04;30.80;99.90
35027;DHT22;60696;51.426;6.934;2023-08-24T10:46:34;31.20;99.90
35027;DHT22;60696;51.426;6.934;2023-08-24T10:49:00;31.40;99.90
35027;DHT22;60696;51.426;6.934;2023-08-24T10:51:28;31.30;99.90
35027;DHT22;60696;51.426;6.934;2023-08-24T10:53:59;31.00;99.90
35027;DHT22;60696;51.426;6.934;2023-08-24T10:56:40;31.60;99.90
35027;DHT22;60696;51.426;6.934;2023-08-24T10:59:19;31.90;99.90
35027;DHT22;60696;51.426;6.934;2023-08-24T11:01:56;31.80;99.90
35027;DHT22;60696;51.426;6.934;2023-08-24T11:04:23;31.70;99.90
35027;DHT22;60696;51.426;6.934;2023-08-24T11:06:55;31.60;99.90
35027;DHT22;60696;51.426;6.934;2023-08-24T11:09:22;31.40;99.90
35027;DHT22;60696;51.426;6.934;2023-08-24T11:11:59;31.00;99.90
35027;DHT22;60696;51.426;6.934;2023-08-24T11:14:24;30.90;99.90
35027;DHT22;60696;51.426;6.934;2023-08-24T11:17:00;31.00;99.90
35027;DHT22;60696;51.426;6.934;2023-08-24T11:19:25;30.80;99.90
35027;DHT22;60696;51.426;6.934;2023-08-24T11:21:51;30.20;99.90
35027;DHT22;60696;51.426;6.934;2023-08-24T11:24:17;29.80;99.90
35027;DHT22;60696;51.426;6.934;2023-08-24T11:26:45;29.40;99.90
35027;DHT22;60696;51.426;6.934;2023-08-24T11:29:11;29.20;99.90
35027;DHT22;60696;51.426;6.934;2023-08-24T11:31:37;29.20;99.90
35027;DHT22;60696;51.426;6.934;2023-08-24T11:34:04;29.00;99.90
35027;DHT22;60696;51.426;6.934;2023-08-24T11:36:31;28.80;99.90
35027;DHT22;60696;51.426;6.934;2023-08-24T11:38:58;28.90;99.90
35027;DHT22;60696;51.426;6.934;2023-08-24T11:41:25;29.00;99.90
35027;DHT22;60696;51.426;6.934;2023-08-24T11:43:59;28.90;99.90
35027;DHT22;60696;51.426;6.934;2023-08-24T11:46:25;28.60;99.90
35027;DHT22;60696;51.426;6.934;2023-08-24T11:48:50;28.50;99.90
35027;DHT22;60696;51.426;6.934;2023-08-24T11:51:16;28.70;99.90
35027;DHT22;60696;51.426;6.934;2023-08-24T11:53:43;28.60;99.90
35027;DHT22;60696;51.426;6.934;2023-08-24T11:56:10;28.50;99.90
35027;DHT22;60696;51.426;6.934;2023-08-24T11:58:38;28.40;99.90
35027;DHT22;60696;51.426;6.934;2023-08-24T12:01:05;28.10;99.90
35027;DHT22;60696;51.426;6.934;2023-08-24T12:03:31;28.20;99.90
35027;DHT22;60696;51.426;6.934;2023-08-24T12:06:01;28.20;99.90
35027;DHT22;60696;51.426;6.934;2023-08-24T12:08:28;28.20;99.90
35027;DHT22;60696;51.426;6.934;2023-08-24T12:10:54;28.50;99.90
35027;DHT22;60696;51.426;6.934;2023-08-24T12:13:20;28.50;99.90
35027;DHT22;60696;51.426;6.934;2023-08-24T12:15:47;28.60;99.90
35027;DHT22;60696;51.426;6.934;2023-08-24T12:18:16;28.50;99.90
35027;DHT22;60696;51.426;6.934;2023-08-24T12:20:41;28.50;99.90
35027;DHT22;60696;51.426;6.934;2023-08-24T12:23:07;28.50;1.00
35027;DHT22;60696;51.426;6.934;2023-08-24T12:25:43;28.20;99.90
35027;DHT22;60696;51.426;6.934;2023-08-24T12:28:11;28.10;99.90
35027;DHT22;60696;51.426;6.934;2023-08-24T12:31:06;28.20;1.00
35027;DHT22;60696;51.426;6.934;2023-08-24T12:33:32;28.30;1.00
35027;DHT22;60696;51.426;6.934;2023-08-24T12:35:58;28.30;1.00
35027;DHT22;60696;51.426;6.934;2023-08-24T12:38:25;28.00;1.00
35027;DHT22;60696;51.426;6.934;2023-08-24T12:40:52;27.50;99.90
35027;DHT22;60696;51.426;6.934;2023-08-24T12:43:18;27.40;1.00
35027;DHT22;60696;51.426;6.934;2023-08-24T12:45:43;27.30;1.00
35027;DHT22;60696;51.426;6.934;2023-08-24T12:48:10;27.10;1.00
35027;DHT22;60696;51.426;6.934;2023-08-24T12:50:36;26.90;1.00
35027;DHT22;60696;51.426;6.934;2023-08-24T12:53:02;26.80;1.00
35027;DHT22;60696;51.426;6.934;2023-08-24T12:55:32;26.60;51.60
35027;DHT22;60696;51.426;6.934;2023-08-24T12:57:57;26.40;99.90
35027;DHT22;60696;51.426;6.934;2023-08-24T13:00:24;26.50;99.90
35027;DHT22;60696;51.426;6.934;2023-08-24T13:02:50;26.40;99.90
35027;DHT22;60696;51.426;6.934;2023-08-24T13:05:16;26.40;99.90
35027;DHT22;60696;51.426;6.934;2023-08-24T13:07:41;26.40;99.90
35027;DHT22;60696;51.426;6.934;2023-08-24T13:10:07;26.40;99.90
35027;DHT22;60696;51.426;6.934;2023-08-24T13:12:34;26.30;1.00
35027;DHT22;60696;51.426;6.934;2023-08-24T13:15:00;26.50;99.90
35027;DHT22;60696;51.426;6.934;2023-08-24T13:17:27;26.70;1.00
35027;DHT22;60696;51.426;6.934;2023-08-24T13:19:53;26.80;99.90
35027;DHT22;60696;51.426;6.934;2023-08-24T13:22:19;26.80;99.90
35027;DHT22;60696;51.426;6.934;2023-08-24T13:24:44;27.00;99.90
35027;DHT22;60696;51.426;6.934;2023-08-24T13:27:10;26.90;1.00
35027;DHT22;60696;51.426;6.934;2023-08-24T13:29:41;26.90;99.90
35027;DHT22;60696;51.426;6.934;2023-08-24T13:32:07;26.70;99.90
35027;DHT22;60696;51.426;6.934;2023-08-24T13:34:33;26.70;99.90
35027;DHT22;60696;51.426;6.934;2023-08-24T13:36:59;26.50;99.90
35027;DHT22;60696;51.426;6.934;2023-08-24T13:39:28;26.30;99.90
35027;DHT22;60696;51.426;6.934;2023-08-24T13:41:57;26.30;99.90
35027;DHT22;60696;51.426;6.934;2023-08-24T13:44:23;26.20;99.90
35027;DHT22;60696;51.426;6.934;2023-08-24T13:46:49;26.20;99.90
35027;DHT22;60696;51.426;6.934;2023-08-24T13:49:15;26.10;1.00
35027;DHT22;60696;51.426;6.934;2023-08-24T13:51:40;26.10;1.00
35027;DHT22;60696;51.426;6.934;2023-08-24T13:54:17;26.10;1.00
35027;DHT22;60696;51.426;6.934;2023-08-24T13:56:44;26.20;1.00
35027;DHT22;60696;51.426;6.934;2023-08-24T13:59:09;26.40;1.00
35027;DHT22;60696;51.426;6.934;2023-08-24T14:01:36;26.30;1.00
35027;DHT22;60696;51.426;6.934;2023-08-24T14:04:03;26.40;1.00
35027;DHT22;60696;51.426;6.934;2023-08-24T14:06:29;26.40;1.00
35027;DHT22;60696;51.426;6.934;2023-08-24T14:08:56;26.30;84.70
35027;DHT22;60696;51.426;6.934;2023-08-24T14:11:22;26.30;99.90
35027;DHT22;60696;51.426;6.934;2023-08-24T14:13:48;26.30;80.30
35027;DHT22;60696;51.426;6.934;2023-08-24T14:16:14;26.30;71.50
35027;DHT22;60696;51.426;6.934;2023-08-24T14:18:39;26.30;99.90
35027;DHT22;60696;51.426;6.934;2023-08-24T14:21:05;26.20;34.10
35027;DHT22;60696;51.426;6.934;2023-08-24T14:23:31;26.10;99.90
35027;DHT22;60696;51.426;6.934;2023-08-24T14:25:56;26.00;99.90
35027;DHT22;60696;51.426;6.934;2023-08-24T14:28:22;26.10;1.00
35027;DHT22;60696;51.426;6.934;2023-08-24T14:30:49;26.10;99.90
35027;DHT22;60696;51.426;6.934;2023-08-24T14:33:15;26.00;1.00
35027;DHT22;60696;51.426;6.934;2023-08-24T14:35:41;26.00;1.00
35027;DHT22;60696;51.426;6.934;2023-08-24T14:38:14;25.90;16.40
35027;DHT22;60696;51.426;6.934;2023-08-24T14:40:39;25.80;76.70
35027;DHT22;60696;51.426;6.934;2023-08-24T14:43:05;25.70;88.80
35027;DHT22;60696;51.426;6.934;2023-08-24T14:45:30;25.50;99.90
35027;DHT22;60696;51.426;6.934;2023-08-24T14:47:56;25.50;99.90
35027;DHT22;60696;51.426;6.934;2023-08-24T14:50:22;25.60;1.00
35027;DHT22;60696;51.426;6.934;2023-08-24T14:52:47;25.30;99.90
35027;DHT22;60696;51.426;6.934;2023-08-24T14:55:13;25.20;1.00
35027;DHT22;60696;51.426;6.934;2023-08-24T14:57:38;25.10;1.00
35027;DHT22;60696;51.426;6.934;2023-08-24T15:00:05;25.10;18.80
35027;DHT22;60696;51.426;6.934;2023-08-24T15:02:31;25.00;99.90
35027;DHT22;60696;51.426;6.934;2023-08-24T15:04:57;25.00;39.50
35027;DHT22;60696;51.426;6.934;2023-08-24T15:07:23;25.00;99.90
35027;DHT22;60696;51.426;6.934;2023-08-24T15:09:48;25.00;99.90
35027;DHT22;60696;51.426;6.934;2023-08-24T15:12:14;25.00;99.90
35027;DHT22;60696;51.426;6.934;2023-08-24T15:14:59;25.00;99.90
35027;DHT22;60696;51.426;6.934;2023-08-24T15:17:26;24.80;99.90
35027;DHT22;60696;51.426;6.934;2023-08-24T15:19:52;24.50;99.90
35027;DHT22;60696;51.426;6.934;2023-08-24T15:22:17;24.50;1.00
35027;DHT22;60696;51.426;6.934;2023-08-24T15:24:43;24.40;99.90
35027;DHT22;60696;51.426;6.934;2023-08-24T15:27:09;24.30;99.90
35027;DHT22;60696;51.426;6.934;2023-08-24T15:29:34;24.20;99.90
35027;DHT22;60696;51.426;6.934;2023-08-24T15:32:00;23.90;1.00
35027;DHT22;60696;51.426;6.934;2023-08-24T15:34:26;23.80;1.00
35027;DHT22;60696;51.426;6.934;2023-08-24T15:36:51;23.80;99.90
35027;DHT22;60696;51.426;6.934;2023-08-24T15:39:19;23.70;99.90
35027;DHT22;60696;51.426;6.934;2023-08-24T15:41:45;23.60;99.90
35027;DHT22;60696;51.426;6.934;2023-08-24T15:44:10;23.60;1.00
35027;DHT22;60696;51.426;6.934;2023-08-24T15:46:36;23.50;1.00
35027;DHT22;60696;51.426;6.934;2023-08-24T15:49:01;23.50;24.90
35027;DHT22;60696;51.426;6.934;2023-08-24T15:51:27;23.50;41.60
35027;DHT22;60696;51.426;6.934;2023-08-24T15:53:53;23.50;99.80
35027;DHT22;60696;51.426;6.934;2023-08-24T15:56:18;23.30;54.70
35027;DHT22;60696;51.426;6.934;2023-08-24T15:58:44;23.30;1.00
35027;DHT22;60696;51.426;6.934;2023-08-24T16:01:09;23.20;99.90
35027;DHT22;60696;51.426;6.934;2023-08-24T16:03:35;23.20;99.90
35027;DHT22;60696;51.426;6.934;2023-08-24T16:06:01;23.20;99.90
35027;DHT22;60696;51.426;6.934;2023-08-24T16:08:26;22.80;99.90
35027;DHT22;60696;51.426;6.934;2023-08-24T16:10:56;22.70;1.00
35027;DHT22;60696;51.426;6.934;2023-08-24T16:13:22;22.50;3.30
35027;DHT22;60696;51.426;6.934;2023-08-24T16:15:48;22.30;99.90
35027;DHT22;60696;51.426;6.934;2023-08-24T16:18:13;22.20;99.90
35027;DHT22;60696;51.426;6.934;2023-08-24T16:20:39;22.20;99.90
35027;DHT22;60696;51.426;6.934;2023-08-24T16:23:05;22.10;99.90
35027;DHT22;60696;51.426;6.934;2023-08-24T16:25:30;22.20;99.90
35027;DHT22;60696;51.426;6.934;2023-08-24T16:27:58;22.30;99.90
35027;DHT22;60696;51.426;6.934;2023-08-24T16:30:23;22.20;99.90
35027;DHT22;60696;51.426;6.934;2023-08-24T16:32:49;22.20;99.90
35027;DHT22;60696;51.426;6.934;2023-08-24T16:35:14;22.10;99.90
35027;DHT22;60696;51.426;6.934;2023-08-24T16:37:41;22.00;1.00
35027;DHT22;60696;51.426;6.934;2023-08-24T16:40:07;22.10;1.00
35027;DHT22;60696;51.426;6.934;2023-08-24T16:42:32;22.10;1.00
35027;DHT22;60696;51.426;6.934;2023-08-24T16:44:58;22.20;99.90
35027;DHT22;60696;51.426;6.934;2023-08-24T16:47:23;22.10;99.90
35027;DHT22;60696;51.426;6.934;2023-08-24T16:49:49;22.20;99.90
35027;DHT22;60696;51.426;6.934;2023-08-24T16:52:14;22.10;99.90
35027;DHT22;60696;51.426;6.934;2023-08-24T16:54:40;22.10;99.90
35027;DHT22;60696;51.426;6.934;2023-08-24T16:57:06;22.00;99.90
35027;DHT22;60696;51.426;6.934;2023-08-24T16:59:32;22.00;99.90
35027;DHT22;60696;51.426;6.934;2023-08-24T17:01:58;22.00;99.90
35027;DHT22;60696;51.426;6.934;2023-08-24T17:04:23;22.00;99.90
35027;DHT22;60696;51.426;6.934;2023-08-24T17:06:49;22.20;99.90
35027;DHT22;60696;51.426;6.934;2023-08-24T17:09:14;22.20;99.90
35027;DHT22;60696;51.426;6.934;2023-08-24T17:11:40;22.20;99.90
35027;DHT22;60696;51.426;6.934;2023-08-24T17:14:05;22.30;99.90
35027;DHT22;60696;51.426;6.934;2023-08-24T17:16:31;22.30;99.90
35027;DHT22;60696;51.426;6.934;2023-08-24T17:18:57;22.30;10.60
35027;DHT22;60696;51.426;6.934;2023-08-24T17:21:22;22.30;1.00
35027;DHT22;60696;51.426;6.934;2023-08-24T17:23:48;22.30;1.00
35027;DHT22;60696;51.426;6.934;2023-08-24T17:26:13;22.30;1.00
35027;DHT22;60696;51.426;6.934;2023-08-24T17:28:39;22.20;1.00
35027;DHT22;60696;51.426;6.934;2023-08-24T17:31:05;22.20;1.00
35027;DHT22;60696;51.426;6.934;2023-08-24T17:33:32;22.30;4.40
35027;DHT22;60696;51.426;6.934;2023-08-24T17:35:59;22.30;8.90
35027;DHT22;60696;51.426;6.934;2023-08-24T17:38:25;22.50;1.00
35027;DHT22;60696;51.426;6.934;2023-08-24T17:41:02;22.40;1.00
35027;DHT22;60696;51.426;6.934;2023-08-24T17:43:28;22.50;1.00
35027;DHT22;60696;51.426;6.934;2023-08-24T17:45:54;22.30;1.00
35027;DHT22;60696;51.426;6.934;2023-08-24T17:48:20;22.30;1.00
35027;DHT22;60696;51.426;6.934;2023-08-24T17:50:55;22.40;1.00
35027;DHT22;60696;51.426;6.934;2023-08-24T17:53:22;22.40;1.00
35027;DHT22;60696;51.426;6.934;2023-08-24T17:55:53;22.40;1.00
35027;DHT22;60696;51.426;6.934;2023-08-24T17:58:19;22.30;1.00
35027;DHT22;60696;51.426;6.934;2023-08-24T18:00:45;22.40;99.90
35027;DHT22;60696;51.426;6.934;2023-08-24T18:03:10;22.30;50.20
35027;DHT22;60696;51.426;6.934;2023-08-24T18:05:36;22.30;14.80
35027;DHT22;60696;51.426;6.934;2023-08-24T18:08:01;22.30;74.70
35027;DHT22;60696;51.426;6.934;2023-08-24T18:10:27;22.20;1.00
35027;DHT22;60696;51.426;6.934;2023-08-24T18:12:53;22.00;43.10
35027;DHT22;60696;51.426;6.934;2023-08-24T18:15:19;22.00;20.70
35027;DHT22;60696;51.426;6.934;2023-08-24T18:17:44;22.00;1.00
35027;DHT22;60696;51.426;6.934;2023-08-24T18:20:11;21.80;99.90
35027;DHT22;60696;51.426;6.934;2023-08-24T18:22:36;21.60;99.90
35027;DHT22;60696;51.426;6.934;2023-08-24T18:25:02;21.60;99.90
35027;DHT22;60696;51.426;6.934;2023-08-24T18:27:28;21.60;99.90
35027;DHT22;60696;51.426;6.934;2023-08-24T18:29:53;21.60;99.90
35027;DHT22;60696;51.426;6.934;2023-08-24T18:32:20;21.70;99.90
35027;DHT22;60696;51.426;6.934;2023-08-24T18:34:45;21.70;99.90
35027;DHT22;60696;51.426;6.934;2023-08-24T18:37:11;21.40;99.90
35027;DHT22;60696;51.426;6.934;2023-08-24T18:39:37;21.40;99.90
35027;DHT22;60696;51.426;6.934;2023-08-24T18:42:04;21.50;99.90
35027;DHT22;60696;51.426;6.934;2023-08-24T18:44:30;21.60;99.90
35027;DHT22;60696;51.426;6.934;2023-08-24T18:46:56;21.60;99.90
35027;DHT22;60696;51.426;6.934;2023-08-24T18:49:21;21.60;99.90
35027;DHT22;60696;51.426;6.934;2023-08-24T18:51:48;21.50;99.90
35027;DHT22;60696;51.426;6.934;2023-08-24T18:54:16;21.50;99.90
35027;DHT22;60696;51.426;6.934;2023-08-24T18:56:42;21.40;99.90
35027;DHT22;60696;51.426;6.934;2023-08-24T18:59:08;21.40;99.90
35027;DHT22;60696;51.426;6.934;2023-08-24T19:01:34;21.30;99.90
35027;DHT22;60696;51.426;6.934;2023-08-24T19:04:00;21.30;99.90
35027;DHT22;60696;51.426;6.934;2023-08-24T19:06:25;21.30;99.90
35027;DHT22;60696;51.426;6.934;2023-08-24T19:08:52;21.00;1.00
35027;DHT22;60696;51.426;6.934;2023-08-24T19:11:18;20.80;1.00
35027;DHT22;60696;51.426;6.934;2023-08-24T19:13:44;20.80;1.00
35027;DHT22;60696;51.426;6.934;2023-08-24T19:16:09;20.80;29.10
35027;DHT22;60696;51.426;6.934;2023-08-24T19:18:35;20.70;49.60
35027;DHT22;60696;51.426;6.934;2023-08-24T19:21:01;20.80;46.60
35027;DHT22;60696;51.426;6.934;2023-08-24T19:23:28;20.70;11.50
35027;DHT22;60696;51.426;6.934;2023-08-24T19:25:54;20.70;23.90
35027;DHT22;60696;51.426;6.934;2023-08-24T19:28:20;20.70;42.50
35027;DHT22;60696;51.426;6.934;2023-08-24T19:30:48;20.70;22.30
35027;DHT22;60696;51.426;6.934;2023-08-24T19:33:15;20.80;38.20